sensor_id;sensor_type;location;lat;lon;timestamp;P1;durP1;ratioP1;P2;durP2;ratioP2
7211;SDS011;3647;48.792;9.802;2024-02-21T05:53:57;6.50;;;4.27;;
7211;SDS011;3647;48.792;9.802;2024-02-21T05:56:24;8.27;;;5.37;;
7211;SDS011;3647;48.792;9.802;2024-02-21T05:58:51;6.87;;;4.53;;
7211;SDS011;3647;48.792;9.802;2024-02-21T06:01:18;12.07;;;4.90;;
7211;SDS011;3647;48.792;9.802;2024-02-21T06:03:46;7.27;;;5.07;;
7211;SDS011;3647;48.792;9.802;2024-02-21T06:06:13;7.00;;;4.20;;
7211;SDS011;3647;48.792;9.802;2024-02-21T06:08:40;5.97;;;4.97;;
7211;SDS011;3647;48.792;9.802;2024-02-21T06:11:08;9.30;;;4.53;;
7211;SDS011;3647;48.792;9.802;2024-02-21T06:13:37;8.73;;;4.63;;
7211;SDS011;3647;48.792;9.802;2024-02-21T06:16:05;8.47;;;4.93;;
7211;SDS011;3647;48.792;9.802;2024-02-21T06:18:34;6.80;;;4.60;;
7211;SDS011;3647;48.792;9.802;2024-02-21T06:21:02;4.83;;;4.27;;
7211;SDS011;3647;48.792;9.802;2024-02-21T06:23:31;5.07;;;4.50;;
7211;SDS011;3647;48.792;9.802;2024-02-21T06:25:58;8.90;;;4.50;;
7211;SDS011;3647;48.792;9.802;2024-02-21T06:28:26;8.93;;;5.13;;
7211;SDS011;3647;48.792;9.802;2024-02-21T06:30:53;7.37;;;4.77;;
7211;SDS011;3647;48.792;9.802;2024-02-21T06:33:20;8.30;;;4.63;;
7211;SDS011;3647;48.792;9.802;2024-02-21T06:35:49;4.77;;;4.27;;
7211;SDS011;3647;48.792;9.802;2024-02-21T06:38:18;8.80;;;4.53;;
7211;SDS011;3647;48.792;9.802;2024-02-21T06:40:45;7.47;;;4.87;;
7211;SDS011;3647;48.792;9.802;2024-02-21T06:43:16;10.73;;;6.17;;
7211;SDS011;3647;48.792;9.802;2024-02-21T06:45:45;9.13;;;6.10;;
7211;SDS011;3647;48.792;9.802;2024-02-21T06:48:15;9.30;;;5.53;;
7211;SDS011;3647;48.792;9.802;2024-02-21T06:50:43;17.93;;;6.47;;
7211;SDS011;3647;48.792;9.802;2024-02-21T06:53:10;10.17;;;5.27;;
7211;SDS011;3647;48.792;9.802;2024-02-21T06:55:37;12.77;;;6.03;;
7211;SDS011;3647;48.792;9.802;2024-02-21T06:58:04;9.30;;;6.20;;
7211;SDS011;3647;48.792;9.802;2024-02-21T07:00:33;11.27;;;6.87;;
7211;SDS011;3647;48.792;9.802;2024-02-21T07:03:01;9.20;;;5.53;;
7211;SDS011;3647;48.792;9.802;2024-02-21T07:05:29;12.07;;;6.20;;
7211;SDS011;3647;48.792;9.802;2024-02-21T07:07:56;8.27;;;6.00;;
7211;SDS011;3647;48.792;9.802;2024-02-21T07:10:22;9.20;;;6.90;;
7211;SDS011;3647;48.792;9.802;2024-02-21T07:12:49;11.17;;;6.47;;
7211;SDS011;3647;48.792;9.802;2024-02-21T07:15:17;12.30;;;6.83;;
7211;SDS011;3647;48.792;9.802;2024-02-21T07:17:44;15.97;;;7.10;;
7211;SDS011;3647;48.792;9.802;2024-02-21T07:20:13;10.73;;;6.53;;
7211;SDS011;3647;48.792;9.802;2024-02-21T07:22:39;15.67;;;6.67;;
7211;SDS011;3647;48.792;9.802;2024-02-21T07:25:07;9.13;;;6.33;;
7211;SDS011;3647;48.792;9.802;2024-02-21T07:27:34;13.20;;;7.20;;
7211;SDS011;3647;48.792;9.802;2024-02-21T07:30:02;13.03;;;6.90;;
7211;SDS011;3647;48.792;9.802;2024-02-21T07:32:30;11.43;;;7.63;;
7211;SDS011;3647;48.792;9.802;2024-02-21T07:34:56;9.20;;;6.30;;
7211;SDS011;3647;48.792;9.802;2024-02-21T07:37:25;14.37;;;5.90;;
7211;SDS011;3647;48.792;9.802;2024-02-21T07:39:51;17.03;;;6.57;;
7211;SDS011;3647;48.792;9.802;2024-02-21T07:42:18;9.30;;;6.10;;
7211;SDS011;3647;48.792;9.802;2024-02-21T07:44:45;12.40;;;6.97;;
7211;SDS011;3647;48.792;9.802;2024-02-21T07:47:12;8.17;;;6.17;;
7211;SDS011;3647;48.792;9.802;2024-02-21T07:49:43;14.60;;;5.87;;
7211;SDS011;3647;48.792;9.802;2024-02-21T07:52:10;10.27;;;6.33;;
7211;SDS011;3647;48.792;9.802;2024-02-21T07:54:39;12.83;;;7.77;;
7211;SDS011;3647;48.792;9.802;2024-02-21T07:57:06;9.30;;;6.93;;
7211;SDS011;3647;48.792;9.802;2024-02-21T07:59:33;12.27;;;6.87;;
7211;SDS011;3647;48.792;9.802;2024-02-21T08:02:00;13.57;;;7.33;;
7211;SDS011;3647;48.792;9.802;2024-02-21T08:04:27;15.00;;;7.97;;
7211;SDS011;3647;48.792;9.802;2024-02-21T08:06:54;10.43;;;5.43;;
7211;SDS011;3647;48.792;9.802;2024-02-21T08:09:24;11.70;;;7.13;;
7211;SDS011;3647;48.792;9.802;2024-02-21T08:11:53;10.37;;;6.57;;
7211;SDS011;3647;48.792;9.802;2024-02-21T08:14:20;9.87;;;6.73;;
7211;SDS011;3647;48.792;9.802;2024-02-21T08:16:49;11.67;;;6.70;;
7211;SDS011;3647;48.792;9.802;2024-02-21T08:19:16;9.63;;;6.03;;
7211;SDS011;3647;48.792;9.802;2024-02-21T08:21:43;10.43;;;5.43;;
7211;SDS011;3647;48.792;9.802;2024-02-21T08:24:12;11.27;;;5.43;;
7211;SDS011;3647;48.792;9.802;2024-02-21T08:26:40;8.73;;;6.47;;
7211;SDS011;3647;48.792;9.802;2024-02-21T08:29:08;10.43;;;6.00;;
7211;SDS011;3647;48.792;9.802;2024-02-21T08:31:35;15.47;;;6.40;;
7211;SDS011;3647;48.792;9.802;2024-02-21T08:34:02;11.13;;;6.53;;
7211;SDS011;3647;48.792;9.802;2024-02-21T08:36:29;15.77;;;7.30;;
7211;SDS011;3647;48.792;9.802;2024-02-21T08:38:57;8.80;;;6.30;;
7211;SDS011;3647;48.792;9.802;2024-02-21T08:41:24;9.57;;;5.23;;
7211;SDS011;3647;48.792;9.802;2024-02-21T08:43:52;8.00;;;4.97;;
7211;SDS011;3647;48.792;9.802;2024-02-21T08:46:21;11.57;;;4.63;;
7211;SDS011;3647;48.792;9.802;2024-02-21T08:48:49;6.03;;;4.47;;
7211;SDS011;3647;48.792;9.802;2024-02-21T08:51:16;5.70;;;4.03;;
7211;SDS011;3647;48.792;9.802;2024-02-21T08:53:43;5.13;;;4.00;;
7211;SDS011;3647;48.792;9.802;2024-02-21T08:56:11;4.83;;;3.73;;
7211;SDS011;3647;48.792;9.802;2024-02-21T08:58:38;5.40;;;4.30;;
7211;SDS011;3647;48.792;9.802;2024-02-21T09:01:06;5.57;;;3.07;;
7211;SDS011;3647;48.792;9.802;2024-02-21T09:03:36;5.00;;;3.20;;
7211;SDS011;3647;48.792;9.802;2024-02-21T09:06:04;3.27;;;2.80;;
7211;SDS011;3647;48.792;9.802;2024-02-21T09:08:31;8.13;;;3.40;;
7211;SDS011;3647;48.792;9.802;2024-02-21T09:10:59;5.80;;;3.03;;
7211;SDS011;3647;48.792;9.802;2024-02-21T09:13:26;6.40;;;3.20;;
7211;SDS011;3647;48.792;9.802;2024-02-21T09:15:53;3.87;;;2.80;;
7211;SDS011;3647;48.792;9.802;2024-02-21T09:18:20;5.10;;;3.20;;
7211;SDS011;3647;48.792;9.802;2024-02-21T09:20:48;6.13;;;3.33;;
7211;SDS011;3647;48.792;9.802;2024-02-21T09:23:15;6.40;;;3.50;;
7211;SDS011;3647;48.792;9.802;2024-02-21T09:25:44;6.70;;;3.00;;
7211;SDS011;3647;48.792;9.802;2024-02-21T09:28:12;7.67;;;3.47;;
7211;SDS011;3647;48.792;9.802;2024-02-21T09:30:39;7.03;;;3.17;;
7211;SDS011;3647;48.792;9.802;2024-02-21T09:33:06;6.80;;;2.93;;
7211;SDS011;3647;48.792;9.802;2024-02-21T09:35:32;5.07;;;2.63;;
7211;SDS011;3647;48.792;9.802;2024-02-21T09:38:01;4.43;;;2.83;;
7211;SDS011;3647;48.792;9.802;2024-02-21T09:40:28;8.30;;;3.43;;
7211;SDS011;3647;48.792;9.802;2024-02-21T09:42:58;6.47;;;3.10;;
7211;SDS011;3647;48.792;9.802;2024-02-21T09:45:31;4.77;;;3.30;;
7211;SDS011;3647;48.792;9.802;2024-02-21T09:48:04;6.87;;;3.10;;
7211;SDS011;3647;48.792;9.802;2024-02-21T09:50:45;4.60;;;3.83;;
7211;SDS011;3647;48.792;9.802;2024-02-21T09:53:16;3.10;;;2.80;;
7211;SDS011;3647;48.792;9.802;2024-02-21T09:55:44;5.47;;;3.10;;
7211;SDS011;3647;48.792;9.802;2024-02-21T09:58:12;5.50;;;2.53;;
7211;SDS011;3647;48.792;9.802;2024-02-21T10:00:40;7.33;;;2.97;;
7211;SDS011;3647;48.792;9.802;2024-02-21T10:03:06;7.80;;;3.70;;
7211;SDS011;3647;48.792;9.802;2024-02-21T10:05:35;6.80;;;2.90;;
7211;SDS011;3647;48.792;9.802;2024-02-21T10:08:03;4.50;;;2.90;;
7211;SDS011;3647;48.792;9.802;2024-02-21T10:10:41;5.93;;;3.80;;
7211;SDS011;3647;48.792;9.802;2024-02-21T10:13:09;3.03;;;2.70;;
7211;SDS011;3647;48.792;9.802;2024-02-21T10:15:36;4.93;;;2.90;;
7211;SDS011;3647;48.792;9.802;2024-02-21T10:18:04;5.17;;;2.63;;
7211;SDS011;3647;48.792;9.802;2024-02-21T10:20:32;3.33;;;2.43;;
7211;SDS011;3647;48.792;9.802;2024-02-21T10:23:03;3.67;;;2.30;;
7211;SDS011;3647;48.792;9.802;2024-02-21T10:25:33;6.43;;;3.87;;
7211;SDS011;3647;48.792;9.802;2024-02-21T10:28:03;4.60;;;2.77;;
7211;SDS011;3647;48.792;9.802;2024-02-21T10:30:30;2.70;;;2.17;;
7211;SDS011;3647;48.792;9.802;2024-02-21T10:32:57;4.10;;;2.33;;
7211;SDS011;3647;48.792;9.802;2024-02-21T10:35:27;3.17;;;2.40;;
7211;SDS011;3647;48.792;9.802;2024-02-21T10:37:55;4.30;;;2.47;;
7211;SDS011;3647;48.792;9.802;2024-02-21T10:40:23;3.77;;;2.20;;
7211;SDS011;3647;48.792;9.802;2024-02-21T10:42:52;7.10;;;2.60;;
7211;SDS011;3647;48.792;9.802;2024-02-21T10:45:28;3.27;;;2.40;;
7211;SDS011;3647;48.792;9.802;2024-02-21T10:48:01;2.53;;;2.07;;
7211;SDS011;3647;48.792;9.802;2024-02-21T10:50:36;4.90;;;2.63;;
7211;SDS011;3647;48.792;9.802;2024-02-21T10:53:17;3.90;;;2.37;;
7211;SDS011;3647;48.792;9.802;2024-02-21T10:55:51;6.40;;;2.27;;
7211;SDS011;3647;48.792;9.802;2024-02-21T10:58:25;4.77;;;2.10;;
7211;SDS011;3647;48.792;9.802;2024-02-21T11:00:54;3.03;;;1.90;;
7211;SDS011;3647;48.792;9.802;2024-02-21T11:03:21;3.93;;;2.07;;
7211;SDS011;3647;48.792;9.802;2024-02-21T11:05:48;3.23;;;2.10;;
7211;SDS011;3647;48.792;9.802;2024-02-21T11:08:16;5.03;;;1.83;;
7211;SDS011;3647;48.792;9.802;2024-02-21T11:10:45;2.97;;;1.87;;
7211;SDS011;3647;48.792;9.802;2024-02-21T11:13:12;3.80;;;2.20;;
7211;SDS011;3647;48.792;9.802;2024-02-21T11:15:40;3.00;;;1.70;;
7211;SDS011;3647;48.792;9.802;2024-02-21T11:18:08;5.13;;;2.37;;
7211;SDS011;3647;48.792;9.802;2024-02-21T11:20:35;5.10;;;1.80;;
7211;SDS011;3647;48.792;9.802;2024-02-21T11:23:03;4.23;;;1.93;;
7211;SDS011;3647;48.792;9.802;2024-02-21T11:25:30;4.10;;;1.90;;
7211;SDS011;3647;48.792;9.802;2024-02-21T11:27:59;3.20;;;1.80;;
7211;SDS011;3647;48.792;9.802;2024-02-21T11:30:26;4.03;;;1.67;;
7211;SDS011;3647;48.792;9.802;2024-02-21T11:32:59;2.37;;;1.80;;
7211;SDS011;3647;48.792;9.802;2024-02-21T11:35:32;2.23;;;1.80;;
7211;SDS011;3647;48.792;9.802;2024-02-21T11:38:09;4.60;;;2.43;;
7211;SDS011;3647;48.792;9.802;2024-02-21T11:40:39;6.17;;;1.97;;
7211;SDS011;3647;48.792;9.802;2024-02-21T11:43:07;3.10;;;1.90;;
7211;SDS011;3647;48.792;9.802;2024-02-21T11:45:34;2.43;;;1.60;;
7211;SDS011;3647;48.792;9.802;2024-02-21T11:48:01;2.63;;;2.10;;
7211;SDS011;3647;48.792;9.802;2024-02-21T11:50:32;2.60;;;1.87;;
7211;SDS011;3647;48.792;9.802;2024-02-21T11:53:00;1.93;;;1.50;;
7211;SDS011;3647;48.792;9.802;2024-02-21T11:55:27;3.43;;;1.77;;
7211;SDS011;3647;48.792;9.802;2024-02-21T11:57:55;3.07;;;1.70;;
7211;SDS011;3647;48.792;9.802;2024-02-21T12:00:22;3.13;;;2.10;;
7211;SDS011;3647;48.792;9.802;2024-02-21T12:02:50;5.57;;;1.87;;
7211;SDS011;3647;48.792;9.802;2024-02-21T12:05:18;3.57;;;1.90;;
7211;SDS011;3647;48.792;9.802;2024-02-21T12:07:47;2.00;;;1.60;;
7211;SDS011;3647;48.792;9.802;2024-02-21T12:10:14;1.63;;;1.53;;
7211;SDS011;3647;48.792;9.802;2024-02-21T12:12:41;5.37;;;1.80;;
7211;SDS011;3647;48.792;9.802;2024-02-21T12:15:08;3.07;;;1.77;;
7211;SDS011;3647;48.792;9.802;2024-02-21T12:17:35;2.73;;;1.90;;
7211;SDS011;3647;48.792;9.802;2024-02-21T12:20:03;4.17;;;1.87;;
7211;SDS011;3647;48.792;9.802;2024-02-21T12:22:33;2.17;;;1.50;;
7211;SDS011;3647;48.792;9.802;2024-02-21T12:25:04;1.77;;;1.63;;
7211;SDS011;3647;48.792;9.802;2024-02-21T12:27:42;3.53;;;1.97;;
7211;SDS011;3647;48.792;9.802;2024-02-21T12:30:10;2.37;;;1.87;;
7211;SDS011;3647;48.792;9.802;2024-02-21T12:32:40;2.40;;;1.63;;
7211;SDS011;3647;48.792;9.802;2024-02-21T12:35:07;2.87;;;2.10;;
7211;SDS011;3647;48.792;9.802;2024-02-21T12:37:35;2.00;;;1.53;;
7211;SDS011;3647;48.792;9.802;2024-02-21T12:40:05;2.83;;;1.80;;
7211;SDS011;3647;48.792;9.802;2024-02-21T12:42:32;3.43;;;1.80;;
7211;SDS011;3647;48.792;9.802;2024-02-21T12:45:00;5.10;;;1.70;;
7211;SDS011;3647;48.792;9.802;2024-02-21T12:47:28;5.57;;;1.93;;
7211;SDS011;3647;48.792;9.802;2024-02-21T12:49:55;3.47;;;1.63;;
7211;SDS011;3647;48.792;9.802;2024-02-21T12:52:22;2.47;;;1.77;;
7211;SDS011;3647;48.792;9.802;2024-02-21T12:54:49;2.13;;;1.63;;
7211;SDS011;3647;48.792;9.802;2024-02-21T12:57:18;2.07;;;1.87;;
7211;SDS011;3647;48.792;9.802;2024-02-21T12:59:45;1.77;;;1.67;;
7211;SDS011;3647;48.792;9.802;2024-02-21T13:02:15;3.33;;;1.97;;
7211;SDS011;3647;48.792;9.802;2024-02-21T13:04:42;2.83;;;1.90;;
7211;SDS011;3647;48.792;9.802;2024-02-21T13:07:08;4.43;;;1.60;;
7211;SDS011;3647;48.792;9.802;2024-02-21T13:09:35;3.73;;;1.90;;
7211;SDS011;3647;48.792;9.802;2024-02-21T13:12:02;2.03;;;1.80;;
7211;SDS011;3647;48.792;9.802;2024-02-21T13:14:31;2.47;;;1.60;;
7211;SDS011;3647;48.792;9.802;2024-02-21T13:17:00;2.57;;;1.60;;
7211;SDS011;3647;48.792;9.802;2024-02-21T13:19:27;4.33;;;2.03;;
7211;SDS011;3647;48.792;9.802;2024-02-21T13:21:53;2.70;;;1.80;;
7211;SDS011;3647;48.792;9.802;2024-02-21T13:24:20;3.23;;;2.00;;
7211;SDS011;3647;48.792;9.802;2024-02-21T13:26:47;3.70;;;2.37;;
7211;SDS011;3647;48.792;9.802;2024-02-21T13:29:14;3.60;;;1.90;;
7211;SDS011;3647;48.792;9.802;2024-02-21T13:31:43;4.03;;;2.37;;
7211;SDS011;3647;48.792;9.802;2024-02-21T13:34:11;3.20;;;1.83;;
7211;SDS011;3647;48.792;9.802;2024-02-21T13:36:37;3.27;;;2.00;;
7211;SDS011;3647;48.792;9.802;2024-02-21T13:39:04;2.23;;;1.60;;
7211;SDS011;3647;48.792;9.802;2024-02-21T13:41:32;1.83;;;1.73;;
7211;SDS011;3647;48.792;9.802;2024-02-21T13:43:59;2.43;;;1.70;;
7211;SDS011;3647;48.792;9.802;2024-02-21T13:46:25;2.50;;;1.57;;
7211;SDS011;3647;48.792;9.802;2024-02-21T13:48:54;3.13;;;2.00;;
7211;SDS011;3647;48.792;9.802;2024-02-21T13:51:31;3.93;;;2.13;;
7211;SDS011;3647;48.792;9.802;2024-02-21T13:53:58;3.97;;;1.80;;
7211;SDS011;3647;48.792;9.802;2024-02-21T13:56:25;4.80;;;2.10;;
7211;SDS011;3647;48.792;9.802;2024-02-21T13:58:52;3.17;;;1.83;;
7211;SDS011;3647;48.792;9.802;2024-02-21T14:01:19;3.50;;;1.77;;
7211;SDS011;3647;48.792;9.802;2024-02-21T14:03:46;2.97;;;1.80;;
7211;SDS011;3647;48.792;9.802;2024-02-21T14:06:14;4.57;;;2.37;;
7211;SDS011;3647;48.792;9.802;2024-02-21T14:08:42;4.53;;;2.10;;
7211;SDS011;3647;48.792;9.802;2024-02-21T14:11:09;3.40;;;2.20;;
7211;SDS011;3647;48.792;9.802;2024-02-21T14:13:36;2.20;;;1.70;;
7211;SDS011;3647;48.792;9.802;2024-02-21T14:16:03;3.80;;;1.60;;
7211;SDS011;3647;48.792;9.802;2024-02-21T14:18:38;5.83;;;2.37;;
7211;SDS011;3647;48.792;9.802;2024-02-21T14:21:06;3.63;;;2.13;;
7211;SDS011;3647;48.792;9.802;2024-02-21T14:23:34;3.33;;;1.90;;
7211;SDS011;3647;48.792;9.802;2024-02-21T14:26:01;3.00;;;1.93;;
7211;SDS011;3647;48.792;9.802;2024-02-21T14:28:28;3.50;;;2.20;;
7211;SDS011;3647;48.792;9.802;2024-02-21T14:30:55;5.83;;;2.53;;
7211;SDS011;3647;48.792;9.802;2024-02-21T14:33:22;2.67;;;2.03;;
7211;SDS011;3647;48.792;9.802;2024-02-21T14:35:50;2.00;;;1.80;;
7211;SDS011;3647;48.792;9.802;2024-02-21T14:38:17;3.23;;;1.93;;
7211;SDS011;3647;48.792;9.802;2024-02-21T14:40:46;3.13;;;2.13;;
7211;SDS011;3647;48.792;9.802;2024-02-21T14:43:13;3.97;;;2.20;;
7211;SDS011;3647;48.792;9.802;2024-02-21T14:45:40;2.50;;;1.80;;
7211;SDS011;3647;48.792;9.802;2024-02-21T14:48:08;7.23;;;2.30;;
7211;SDS011;3647;48.792;9.802;2024-02-21T14:50:34;3.23;;;2.10;;
7211;SDS011;3647;48.792;9.802;2024-02-21T14:53:01;4.47;;;2.37;;
7211;SDS011;3647;48.792;9.802;2024-02-21T14:55:28;3.60;;;1.93;;
7211;SDS011;3647;48.792;9.802;2024-02-21T14:57:57;3.23;;;2.30;;
7211;SDS011;3647;48.792;9.802;2024-02-21T15:00:24;4.83;;;2.20;;
7211;SDS011;3647;48.792;9.802;2024-02-21T15:02:55;4.33;;;2.40;;
7211;SDS011;3647;48.792;9.802;2024-02-21T15:05:22;5.30;;;2.40;;
7211;SDS011;3647;48.792;9.802;2024-02-21T15:07:49;4.70;;;2.40;;
7211;SDS011;3647;48.792;9.802;2024-02-21T15:10:16;2.23;;;2.03;;
7211;SDS011;3647;48.792;9.802;2024-02-21T15:12:44;3.80;;;2.50;;
7211;SDS011;3647;48.792;9.802;2024-02-21T15:15:12;4.37;;;2.37;;
7211;SDS011;3647;48.792;9.802;2024-02-21T15:17:39;4.07;;;2.20;;
7211;SDS011;3647;48.792;9.802;2024-02-21T15:20:07;3.80;;;2.23;;
7211;SDS011;3647;48.792;9.802;2024-02-21T15:22:35;5.70;;;2.47;;
7211;SDS011;3647;48.792;9.802;2024-02-21T15:25:03;4.23;;;2.07;;
7211;SDS011;3647;48.792;9.802;2024-02-21T15:27:30;2.80;;;2.00;;
7211;SDS011;3647;48.792;9.802;2024-02-21T15:29:57;3.50;;;2.40;;
7211;SDS011;3647;48.792;9.802;2024-02-21T15:32:26;4.60;;;2.07;;
7211;SDS011;3647;48.792;9.802;2024-02-21T15:34:53;4.60;;;2.10;;
7211;SDS011;3647;48.792;9.802;2024-02-21T15:37:20;2.13;;;1.93;;
7211;SDS011;3647;48.792;9.802;2024-02-21T15:39:47;8.00;;;2.57;;
7211;SDS011;3647;48.792;9.802;2024-02-21T15:42:14;3.37;;;2.27;;
7211;SDS011;3647;48.792;9.802;2024-02-21T15:44:41;4.83;;;1.90;;
7211;SDS011;3647;48.792;9.802;2024-02-21T15:47:08;6.33;;;2.13;;
7211;SDS011;3647;48.792;9.802;2024-02-21T15:49:36;3.17;;;2.43;;
7211;SDS011;3647;48.792;9.802;2024-02-21T15:52:04;3.60;;;1.80;;
7211;SDS011;3647;48.792;9.802;2024-02-21T15:54:31;4.20;;;1.93;;
7211;SDS011;3647;48.792;9.802;2024-02-21T15:56:58;5.13;;;1.97;;
7211;SDS011;3647;48.792;9.802;2024-02-21T15:59:25;5.17;;;2.10;;
7211;SDS011;3647;48.792;9.802;2024-02-21T16:01:52;4.37;;;2.50;;
7211;SDS011;3647;48.792;9.802;2024-02-21T16:04:19;4.50;;;2.50;;
7211;SDS011;3647;48.792;9.802;2024-02-21T16:06:49;7.17;;;2.30;;
7211;SDS011;3647;48.792;9.802;2024-02-21T16:09:16;3.83;;;2.53;;
7211;SDS011;3647;48.792;9.802;2024-02-21T16:11:43;5.57;;;2.50;;
7211;SDS011;3647;48.792;9.802;2024-02-21T16:14:10;5.03;;;2.33;;
7211;SDS011;3647;48.792;9.802;2024-02-21T16:16:37;4.17;;;2.80;;
7211;SDS011;3647;48.792;9.802;2024-02-21T16:19:05;4.50;;;2.60;;
7211;SDS011;3647;48.792;9.802;2024-02-21T16:21:32;3.77;;;2.20;;
7211;SDS011;3647;48.792;9.802;2024-02-21T16:24:01;4.47;;;2.27;;
7211;SDS011;3647;48.792;9.802;2024-02-21T16:26:29;5.70;;;2.90;;
7211;SDS011;3647;48.792;9.802;2024-02-21T16:28:56;7.40;;;3.00;;
7211;SDS011;3647;48.792;9.802;2024-02-21T16:31:23;6.00;;;3.70;;
7211;SDS011;3647;48.792;9.802;2024-02-21T16:33:50;5.23;;;3.37;;
7211;SDS011;3647;48.792;9.802;2024-02-21T16:36:20;4.20;;;2.80;;
7211;SDS011;3647;48.792;9.802;2024-02-21T16:38:48;3.70;;;2.37;;
7211;SDS011;3647;48.792;9.802;2024-02-21T16:41:17;2.80;;;2.53;;
7211;SDS011;3647;48.792;9.802;2024-02-21T16:43:45;7.90;;;2.50;;
7211;SDS011;3647;48.792;9.802;2024-02-21T16:46:13;5.70;;;3.30;;
7211;SDS011;3647;48.792;9.802;2024-02-21T16:48:40;4.40;;;3.37;;
7211;SDS011;3647;48.792;9.802;2024-02-21T16:51:07;2.97;;;2.60;;
7211;SDS011;3647;48.792;9.802;2024-02-21T16:53:34;6.00;;;3.00;;
7211;SDS011;3647;48.792;9.802;2024-02-21T16:56:01;5.23;;;3.43;;
7211;SDS011;3647;48.792;9.802;2024-02-21T16:58:31;4.13;;;2.80;;
7211;SDS011;3647;48.792;9.802;2024-02-21T17:01:01;4.00;;;2.83;;
7211;SDS011;3647;48.792;9.802;2024-02-21T17:03:31;4.73;;;2.87;;
7211;SDS011;3647;48.792;9.802;2024-02-21T17:05:58;4.93;;;3.20;;
7211;SDS011;3647;48.792;9.802;2024-02-21T17:08:25;4.73;;;3.07;;
7211;SDS011;3647;48.792;9.802;2024-02-21T17:10:53;7.40;;;4.63;;
7211;SDS011;3647;48.792;9.802;2024-02-21T17:13:20;7.17;;;3.23;;
7211;SDS011;3647;48.792;9.802;2024-02-21T17:15:50;4.97;;;3.43;;
7211;SDS011;3647;48.792;9.802;2024-02-21T17:18:17;7.40;;;3.90;;
7211;SDS011;3647;48.792;9.802;2024-02-21T17:20:44;7.07;;;4.43;;
7211;SDS011;3647;48.792;9.802;2024-02-21T17:23:13;8.53;;;5.47;;
7211;SDS011;3647;48.792;9.802;2024-02-21T17:25:40;7.10;;;4.93;;
7211;SDS011;3647;48.792;9.802;2024-02-21T17:28:07;6.23;;;4.53;;
7211;SDS011;3647;48.792;9.802;2024-02-21T17:30:34;11.60;;;5.63;;
7211;SDS011;3647;48.792;9.802;2024-02-21T17:33:03;7.73;;;5.13;;
7211;SDS011;3647;48.792;9.802;2024-02-21T17:35:32;8.73;;;5.30;;
7211;SDS011;3647;48.792;9.802;2024-02-21T17:38:00;11.57;;;7.40;;
7211;SDS011;3647;48.792;9.802;2024-02-21T17:40:28;11.03;;;7.47;;
7211;SDS011;3647;48.792;9.802;2024-02-21T17:42:54;10.40;;;6.20;;
7211;SDS011;3647;48.792;9.802;2024-02-21T17:45:22;7.60;;;5.97;;
7211;SDS011;3647;48.792;9.802;2024-02-21T17:47:49;11.67;;;5.07;;
7211;SDS011;3647;48.792;9.802;2024-02-21T17:50:18;8.40;;;5.33;;
7211;SDS011;3647;48.792;9.802;2024-02-21T17:52:46;4.13;;;3.50;;
7211;SDS011;3647;48.792;9.802;2024-02-21T17:55:13;5.17;;;3.20;;
7211;SDS011;3647;48.792;9.802;2024-02-21T17:57:40;14.63;;;4.63;;
7211;SDS011;3647;48.792;9.802;2024-02-21T18:00:07;6.80;;;4.00;;
7211;SDS011;3647;48.792;9.802;2024-02-21T18:02:37;2.60;;;2.40;;
7211;SDS011;3647;48.792;9.802;2024-02-21T18:05:04;4.87;;;2.63;;
7211;SDS011;3647;48.792;9.802;2024-02-21T18:07:33;2.20;;;2.10;;
7211;SDS011;3647;48.792;9.802;2024-02-21T18:10:01;2.40;;;2.30;;
7211;SDS011;3647;48.792;9.802;2024-02-21T18:12:30;3.00;;;2.13;;
7211;SDS011;3647;48.792;9.802;2024-02-21T18:14:58;3.67;;;3.00;;
7211;SDS011;3647;48.792;9.802;2024-02-21T18:17:26;4.27;;;2.37;;
7211;SDS011;3647;48.792;9.802;2024-02-21T18:19:53;6.23;;;2.87;;
7211;SDS011;3647;48.792;9.802;2024-02-21T18:22:20;3.13;;;2.33;;
7211;SDS011;3647;48.792;9.802;2024-02-21T18:24:48;5.70;;;3.07;;
7211;SDS011;3647;48.792;9.802;2024-02-21T18:27:15;6.93;;;3.50;;
7211;SDS011;3647;48.792;9.802;2024-02-21T18:29:43;6.33;;;3.50;;
7211;SDS011;3647;48.792;9.802;2024-02-21T18:32:10;4.80;;;3.93;;
7211;SDS011;3647;48.792;9.802;2024-02-21T18:34:37;11.13;;;5.77;;
7211;SDS011;3647;48.792;9.802;2024-02-21T18:37:05;7.20;;;5.10;;
7211;SDS011;3647;48.792;9.802;2024-02-21T18:39:32;6.30;;;4.67;;
7211;SDS011;3647;48.792;9.802;2024-02-21T18:42:00;9.23;;;4.87;;
7211;SDS011;3647;48.792;9.802;2024-02-21T18:44:28;5.80;;;3.77;;
7211;SDS011;3647;48.792;9.802;2024-02-21T18:46:55;4.77;;;2.90;;
7211;SDS011;3647;48.792;9.802;2024-02-21T18:49:22;2.87;;;2.63;;
7211;SDS011;3647;48.792;9.802;2024-02-21T18:51:49;7.97;;;3.20;;
7211;SDS011;3647;48.792;9.802;2024-02-21T18:54:16;6.87;;;4.97;;
7211;SDS011;3647;48.792;9.802;2024-02-21T18:56:44;9.70;;;6.87;;
7211;SDS011;3647;48.792;9.802;2024-02-21T18:59:17;9.77;;;7.60;;
7211;SDS011;3647;48.792;9.802;2024-02-21T19:01:44;12.47;;;7.87;;
7211;SDS011;3647;48.792;9.802;2024-02-21T19:04:11;7.23;;;5.60;;
7211;SDS011;3647;48.792;9.802;2024-02-21T19:06:38;6.40;;;4.70;;
7211;SDS011;3647;48.792;9.802;2024-02-21T19:09:06;5.97;;;4.57;;
7211;SDS011;3647;48.792;9.802;2024-02-21T19:11:33;5.37;;;4.70;;
7211;SDS011;3647;48.792;9.802;2024-02-21T19:14:00;6.30;;;4.00;;
7211;SDS011;3647;48.792;9.802;2024-02-21T19:16:29;6.10;;;3.63;;
7211;SDS011;3647;48.792;9.802;2024-02-21T19:18:56;8.00;;;5.07;;
7211;SDS011;3647;48.792;9.802;2024-02-21T19:21:23;6.30;;;4.77;;
7211;SDS011;3647;48.792;9.802;2024-02-21T19:23:50;7.73;;;4.63;;
7211;SDS011;3647;48.792;9.802;2024-02-21T19:26:19;5.70;;;4.27;;
7211;SDS011;3647;48.792;9.802;2024-02-21T19:28:46;6.77;;;4.87;;
7211;SDS011;3647;48.792;9.802;2024-02-21T19:31:13;5.70;;;4.27;;
7211;SDS011;3647;48.792;9.802;2024-02-21T19:33:42;5.87;;;4.43;;
7211;SDS011;3647;48.792;9.802;2024-02-21T19:36:09;4.07;;;3.70;;
7211;SDS011;3647;48.792;9.802;2024-02-21T19:38:36;7.50;;;4.17;;
7211;SDS011;3647;48.792;9.802;2024-02-21T19:41:03;9.17;;;4.40;;
7211;SDS011;3647;48.792;9.802;2024-02-21T19:43:31;9.77;;;5.97;;
7211;SDS011;3647;48.792;9.802;2024-02-21T19:45:59;10.73;;;5.30;;
7211;SDS011;3647;48.792;9.802;2024-02-21T19:48:26;6.90;;;4.47;;
7211;SDS011;3647;48.792;9.802;2024-02-21T19:50:56;9.20;;;5.37;;
7211;SDS011;3647;48.792;9.802;2024-02-21T19:53:23;8.93;;;5.00;;
7211;SDS011;3647;48.792;9.802;2024-02-21T19:55:50;7.43;;;5.57;;
7211;SDS011;3647;48.792;9.802;2024-02-21T19:58:17;6.90;;;4.77;;
7211;SDS011;3647;48.792;9.802;2024-02-21T20:00:44;6.37;;;4.70;;
7211;SDS011;3647;48.792;9.802;2024-02-21T20:03:11;11.30;;;5.60;;
7211;SDS011;3647;48.792;9.802;2024-02-21T20:05:38;7.80;;;4.83;;
7211;SDS011;3647;48.792;9.802;2024-02-21T20:08:08;7.50;;;5.87;;
7211;SDS011;3647;48.792;9.802;2024-02-21T20:10:36;6.67;;;4.43;;
7211;SDS011;3647;48.792;9.802;2024-02-21T20:13:03;5.80;;;4.43;;
7211;SDS011;3647;48.792;9.802;2024-02-21T20:15:30;3.73;;;3.30;;
7211;SDS011;3647;48.792;9.802;2024-02-21T20:17:57;3.47;;;2.80;;
7211;SDS011;3647;48.792;9.802;2024-02-21T20:20:24;2.40;;;2.20;;
7211;SDS011;3647;48.792;9.802;2024-02-21T20:22:52;2.70;;;2.40;;
7211;SDS011;3647;48.792;9.802;2024-02-21T20:25:21;9.13;;;7.60;;
7211;SDS011;3647;48.792;9.802;2024-02-21T20:27:48;7.40;;;3.93;;
7211;SDS011;3647;48.792;9.802;2024-02-21T20:30:15;6.00;;;3.57;;
7211;SDS011;3647;48.792;9.802;2024-02-21T20:32:42;7.00;;;4.70;;
7211;SDS011;3647;48.792;9.802;2024-02-21T20:35:09;7.47;;;4.60;;
7211;SDS011;3647;48.792;9.802;2024-02-21T20:37:36;4.30;;;3.43;;
7211;SDS011;3647;48.792;9.802;2024-02-21T20:40:04;4.83;;;3.00;;
7211;SDS011;3647;48.792;9.802;2024-02-21T20:42:37;3.43;;;3.03;;
7211;SDS011;3647;48.792;9.802;2024-02-21T20:45:05;2.63;;;2.40;;
7211;SDS011;3647;48.792;9.802;2024-02-21T20:47:33;3.17;;;2.03;;
7211;SDS011;3647;48.792;9.802;2024-02-21T20:50:01;2.10;;;2.00;;
7211;SDS011;3647;48.792;9.802;2024-02-21T20:52:29;3.60;;;2.13;;
7211;SDS011;3647;48.792;9.802;2024-02-21T20:54:56;2.20;;;2.00;;
7211;SDS011;3647;48.792;9.802;2024-02-21T20:57:23;2.10;;;1.90;;
7211;SDS011;3647;48.792;9.802;2024-02-21T20:59:52;2.30;;;2.10;;
7211;SDS011;3647;48.792;9.802;2024-02-21T21:02:19;2.37;;;2.17;;
7211;SDS011;3647;48.792;9.802;2024-02-21T21:04:47;2.40;;;1.83;;
7211;SDS011;3647;48.792;9.802;2024-02-21T21:07:14;2.10;;;1.27;;
7211;SDS011;3647;48.792;9.802;2024-02-21T21:09:41;3.17;;;1.43;;
7211;SDS011;3647;48.792;9.802;2024-02-21T21:12:08;1.60;;;1.50;;